Time;durP1;ratioP1;P1;durP2;ratioP2;P2;SDS_P1;SDS_P2;PMS_P1;PMS_P2;Temp;Humidity;BMP_temperature;BMP_pressure;BME280_temperature;BME280_humidity;BME280_pressure;Samples;Min_cycle;Max_cycle;Signal;HPM_P1;HPM_P2
2021/01/25 00:01:06;;;;;;;8.10;5.20;;;;;;;0.04;80.05;94452.50;5042739;28;20570;-82
2021/01/25 00:03:33;;;;;;;9.93;6.10;;;;;;;0.00;80.69;94455.47;5042677;28;20518;-82
2021/01/25 00:05:59;;;;;;;7.13;4.67;;;;;;;0.07;79.72;94450.75;5042943;28;20424;-82
2021/01/25 00:08:25;;;;;;;6.20;4.53;;;;;;;0.08;80.19;94450.22;5041773;28;20442;-82
2021/01/25 00:10:53;;;;;;;7.97;4.73;;;;;;;0.08;79.93;94441.56;5040470;28;20557;-82
2021/01/25 00:13:19;;;;;;;7.30;4.03;;;;;;;0.10;79.01;94447.06;5040251;28;21060;-83
2021/01/25 00:15:49;;;;;;;6.63;4.83;;;;;;;0.15;79.06;94438.28;5040667;28;20526;-83
2021/01/25 00:18:16;;;;;;;6.50;3.87;;;;;;;0.19;78.41;94433.38;5040170;28;20981;-82
2021/01/25 00:20:42;;;;;;;9.23;4.77;;;;;;;0.13;78.39;94432.75;5036166;28;20467;-84
2021/01/25 00:23:08;;;;;;;5.90;4.43;;;;;;;0.00;79.03;94421.00;5036138;28;20930;-84
2021/01/25 00:25:35;;;;;;;9.03;4.53;;;;;;;-0.07;79.60;94423.59;5037077;28;20458;-81
2021/01/25 00:28:01;;;;;;;9.07;4.00;;;;;;;-0.03;79.34;94422.03;5040586;28;20462;-81
2021/01/25 00:30:27;;;;;;;7.40;4.33;;;;;;;-0.14;79.77;94406.41;5040971;28;20907;-81
2021/01/25 00:32:55;;;;;;;5.50;3.47;;;;;;;-0.24;79.58;94402.78;5041983;28;20495;-81
2021/01/25 00:35:21;;;;;;;6.60;4.27;;;;;;;-0.25;79.97;94395.34;5038876;28;20450;-81
2021/01/25 00:37:47;;;;;;;8.03;4.70;;;;;;;-0.25;79.62;94398.69;5039500;28;20510;-81
2021/01/25 00:40:14;;;;;;;8.57;4.40;;;;;;;-0.43;79.91;94396.22;5039859;28;20443;-81
2021/01/25 00:42:41;;;;;;;7.10;4.07;;;;;;;-0.43;80.86;94394.28;5036250;28;20443;-84
2021/01/25 00:45:08;;;;;;;6.20;3.90;;;;;;;-0.39;81.13;94415.88;5035285;28;20530;-85
2021/01/25 00:47:35;;;;;;;11.03;3.90;;;;;;;-0.23;80.10;94404.22;5035506;28;20500;-84
2021/01/25 00:50:03;;;;;;;8.93;5.07;;;;;;;-0.24;79.86;94397.47;5035681;28;20810;-83
2021/01/25 00:52:30;;;;;;;5.73;3.80;;;;;;;-0.22;79.28;94399.63;5035927;28;20922;-84
2021/01/25 00:58:06;;;;;;;10.17;3.77;;;;;;;0.14;79.80;94405.75;5059916;28;20398;-83
2021/01/25 01:00:33;;;;;;;6.57;3.43;;;;;;;-0.09;78.31;94394.25;5050823;28;20455;-84
2021/01/25 01:02:59;;;;;;;4.90;3.30;;;;;;;-0.07;78.55;94392.50;5034933;28;20455;-85
2021/01/25 01:05:26;;;;;;;8.10;3.60;;;;;;;0.03;78.89;94394.72;5035426;28;20423;-85
2021/01/25 01:07:53;;;;;;;5.10;3.60;;;;;;;0.08;78.65;94399.88;5035470;28;20936;-85
2021/01/25 01:10:19;;;;;;;12.33;3.87;;;;;;;0.04;79.00;94394.19;5041257;28;20451;-83
2021/01/25 01:12:46;;;;;;;7.97;4.47;;;;;;;0.00;78.79;94397.16;5059261;28;20466;-81
2021/01/25 01:15:14;;;;;;;4.40;2.93;;;;;;;-0.04;78.94;94402.09;5059565;28;20451;-83
2021/01/25 01:17:41;;;;;;;4.63;3.27;;;;;;;0.06;79.42;94404.28;5059491;28;20453;-84
2021/01/25 01:20:08;;;;;;;4.87;3.83;;;;;;;0.15;79.33;94398.50;5044562;28;20435;-85
2021/01/25 01:22:36;;;;;;;7.33;4.00;;;;;;;0.21;79.26;94401.72;5034737;28;20439;-84
2021/01/25 01:25:03;;;;;;;8.60;4.17;;;;;;;0.24;79.35;94396.09;5034866;28;20439;-85
2021/01/25 01:27:30;;;;;;;6.63;3.77;;;;;;;0.28;79.27;94387.81;5034327;28;20451;-84
2021/01/25 01:29:56;;;;;;;3.60;3.07;;;;;;;0.29;78.69;94386.56;5034571;28;20447;-84
2021/01/25 01:32:22;;;;;;;6.57;3.77;;;;;;;0.30;78.99;94378.13;5034115;28;20518;-84
2021/01/25 01:34:49;;;;;;;7.00;3.77;;;;;;;0.20;79.36;94377.16;5034545;28;20481;-84
2021/01/25 01:37:15;;;;;;;4.47;2.97;;;;;;;0.21;79.00;94377.88;5034213;28;20439;-83
2021/01/25 01:39:42;;;;;;;5.90;3.20;;;;;;;0.16;79.69;94371.47;5033980;28;20865;-84
2021/01/25 01:42:15;;;;;;;6.73;3.10;;;;;;;0.22;79.78;94374.00;5034080;28;20506;-83
2021/01/25 01:44:41;;;;;;;3.60;2.20;;;;;;;0.10;80.40;94370.88;5033994;28;20836;-84
2021/01/25 01:47:09;;;;;;;5.23;3.97;;;;;;;0.04;80.81;94366.94;5034231;28;20441;-83
2021/01/25 01:49:35;;;;;;;6.67;3.30;;;;;;;0.14;80.87;94368.63;5033942;28;20813;-84
2021/01/25 01:52:02;;;;;;;5.30;3.00;;;;;;;0.21;80.94;94369.91;5033914;28;20526;-84
2021/01/25 01:54:28;;;;;;;4.50;3.00;;;;;;;0.17;80.87;94375.53;5033807;28;20497;-84
2021/01/25 01:56:56;;;;;;;5.20;2.97;;;;;;;0.18;81.37;94371.66;5033712;28;20435;-84
2021/01/25 01:59:22;;;;;;;4.87;3.07;;;;;;;0.28;81.81;94363.97;5033915;28;20962;-84
2021/01/25 02:01:49;;;;;;;8.87;4.30;;;;;;;0.24;81.10;94369.59;5034091;28;20470;-84
2021/01/25 02:04:15;;;;;;;7.00;3.40;;;;;;;0.16;81.80;94358.22;5034658;28;20435;-84
2021/01/25 02:06:43;;;;;;;4.70;3.47;;;;;;;0.23;82.09;94356.84;5033976;28;20443;-84
2021/01/25 02:09:12;;;;;;;5.80;3.60;;;;;;;0.15;82.37;94361.38;5033363;28;20470;-84
2021/01/25 02:11:40;;;;;;;10.70;3.60;;;;;;;0.19;82.25;94353.81;5034498;28;20467;-81
2021/01/25 02:14:08;;;;;;;6.67;3.90;;;;;;;0.15;82.56;94359.47;5038104;28;20450;-81
2021/01/25 02:16:38;;;;;;;4.10;3.67;;;;;;;0.22;82.84;94358.09;5038281;28;20511;-81
2021/01/25 02:19:05;;;;;;;8.13;4.53;;;;;;;0.30;82.81;94358.84;5038365;28;20431;-81
2021/01/25 02:21:33;;;;;;;9.03;4.67;;;;;;;0.24;83.01;94358.28;5038417;28;20490;-81
2021/01/25 02:24:10;;;;;;;12.03;5.70;;;;;;;0.28;83.02;94363.97;5039188;28;20912;-81
2021/01/25 02:27:08;;;;;;;9.87;4.53;;;;;;;0.23;82.99;94356.84;5038956;28;20421;-81
2021/01/25 02:29:36;;;;;;;8.07;5.30;;;;;;;0.14;83.68;94359.97;5036457;28;20774;-81
2021/01/25 02:32:03;;;;;;;7.47;5.10;;;;;;;0.21;83.48;94356.66;5039464;28;20581;-81
2021/01/25 02:34:32;;;;;;;11.30;4.70;;;;;;;0.25;83.66;94355.09;5041445;28;20451;-81
2021/01/25 02:37:00;;;;;;;11.00;4.97;;;;;;;0.35;83.46;94353.38;5041205;28;20452;-81
2021/01/25 02:39:28;;;;;;;9.60;5.23;;;;;;;0.30;83.78;94345.56;5040542;28;20537;-81
2021/01/25 02:41:54;;;;;;;5.73;4.67;;;;;;;0.39;83.84;94358.34;5040833;28;20466;-81
2021/01/25 02:44:22;;;;;;;7.17;4.70;;;;;;;0.47;83.87;94351.84;5041840;28;20442;-81
2021/01/25 02:46:50;;;;;;;6.50;4.43;;;;;;;0.56;83.25;94356.00;5043469;28;20447;-81
2021/01/25 02:49:17;;;;;;;10.10;6.50;;;;;;;0.58;83.12;94347.50;5043894;28;20478;-81
2021/01/25 02:51:43;;;;;;;9.13;5.00;;;;;;;0.49;83.46;94356.66;5043479;28;20454;-81
2021/01/25 02:54:09;;;;;;;10.00;5.43;;;;;;;0.45;83.58;94346.38;5039269;28;20939;-83
2021/01/25 02:56:36;;;;;;;11.43;6.13;;;;;;;0.46;83.97;94349.75;5037472;28;20534;-84
2021/01/25 02:59:03;;;;;;;8.03;5.20;;;;;;;0.44;84.49;94346.88;5037367;28;20826;-84
2021/01/25 03:01:29;;;;;;;7.60;5.90;;;;;;;0.47;84.18;94351.19;5037077;28;20849;-84
2021/01/25 03:03:57;;;;;;;10.13;6.00;;;;;;;0.49;84.02;94352.06;5036880;28;20443;-85
2021/01/25 03:06:23;;;;;;;7.93;4.80;;;;;;;0.53;83.91;94351.72;5037124;28;20427;-84
2021/01/25 03:08:50;;;;;;;16.33;5.13;;;;;;;0.58;83.98;94363.41;5037034;28;20526;-84
2021/01/25 03:11:19;;;;;;;10.33;5.30;;;;;;;0.52;83.95;94363.56;5037021;28;20474;-84
2021/01/25 03:13:46;;;;;;;7.80;5.43;;;;;;;0.52;84.83;94374.19;5036769;28;20486;-84
2021/01/25 03:16:15;;;;;;;10.10;5.20;;;;;;;0.57;85.40;94377.91;5036955;28;20439;-84
2021/01/25 03:18:42;;;;;;;11.23;4.70;;;;;;;0.54;85.44;94380.38;5036695;28;20450;-84
2021/01/25 03:21:09;;;;;;;10.80;6.30;;;;;;;0.48;86.54;94387.78;5037100;28;20467;-84
2021/01/25 03:23:38;;;;;;;6.13;5.53;;;;;;;0.51;86.35;94386.00;5036992;28;20514;-84
2021/01/25 03:26:04;;;;;;;6.67;5.50;;;;;;;0.41;88.12;94383.13;5037162;28;20435;-84
2021/01/25 03:28:31;;;;;;;8.40;5.20;;;;;;;0.35;88.54;94389.81;5036657;28;20485;-83
2021/01/25 03:30:57;;;;;;;7.27;5.80;;;;;;;0.30;89.56;94388.00;5036435;28;20459;-83
2021/01/25 03:33:23;;;;;;;16.93;7.13;;;;;;;0.31;90.45;94387.50;5036351;28;20485;-85
2021/01/25 03:35:50;;;;;;;9.80;5.90;;;;;;;0.32;90.72;94382.88;5036294;28;20459;-84
2021/01/25 03:38:17;;;;;;;6.50;4.80;;;;;;;0.28;91.31;94385.19;5036285;28;20439;-84
2021/01/25 03:40:43;;;;;;;10.27;6.03;;;;;;;0.33;91.39;94382.38;5036471;28;20475;-85
2021/01/25 03:43:13;;;;;;;6.80;5.10;;;;;;;0.31;92.20;94381.47;5036404;28;20450;-84
2021/01/25 03:45:39;;;;;;;5.60;4.47;;;;;;;0.26;92.86;94380.38;5037551;28;20436;-84
2021/01/25 03:48:06;;;;;;;7.37;4.80;;;;;;;0.31;93.44;94384.84;5037615;28;20452;-84
2021/01/25 03:50:33;;;;;;;9.73;5.50;;;;;;;0.31;93.65;94387.50;5041529;28;20459;-81
2021/01/25 03:53:01;;;;;;;6.93;5.00;;;;;;;0.19;94.87;94383.00;5040091;28;20491;-81
2021/01/25 03:55:28;;;;;;;9.97;5.60;;;;;;;0.14;95.30;94375.88;5038089;28;20459;-83
2021/01/25 03:57:54;;;;;;;9.53;5.40;;;;;;;0.18;95.77;94379.63;5037328;28;20447;-82
2021/01/25 04:00:22;;;;;;;10.20;6.27;;;;;;;0.11;96.28;94376.91;5038000;28;20505;-82
2021/01/25 04:02:48;;;;;;;9.13;5.97;;;;;;;0.15;96.44;94377.31;5038477;28;20443;-82
2021/01/25 04:05:15;;;;;;;11.47;5.97;;;;;;;0.29;96.35;94384.63;5038663;28;20501;-82
2021/01/25 04:07:41;;;;;;;9.43;5.50;;;;;;;0.17;96.78;94377.47;5036968;28;20776;-82
2021/01/25 04:10:08;;;;;;;8.20;5.73;;;;;;;0.19;97.07;94383.69;5037203;28;20846;-82
2021/01/25 04:12:35;;;;;;;8.03;4.90;;;;;;;0.31;97.36;94386.78;5056334;28;20502;-82
2021/01/25 04:15:02;;;;;;;6.97;5.80;;;;;;;0.34;96.80;94389.09;5058242;28;20451;-82
2021/01/25 04:17:28;;;;;;;8.20;5.50;;;;;;;0.40;96.95;94391.63;5059411;28;20423;-83
2021/01/25 04:19:55;;;;;;;15.00;6.17;;;;;;;0.45;96.66;94390.75;5050089;28;20478;-84
2021/01/25 04:22:21;;;;;;;9.13;5.33;;;;;;;0.45;96.65;94390.75;5036341;28;20463;-84
2021/01/25 04:24:48;;;;;;;10.33;4.57;;;;;;;0.43;97.10;94387.91;5036863;28;20451;-84
2021/01/25 04:27:14;;;;;;;7.90;5.60;;;;;;;0.42;97.02;94387.22;5035999;28;20453;-83
2021/01/25 04:29:42;;;;;;;6.73;4.80;;;;;;;0.43;97.10;94390.56;5038267;28;20954;-83
2021/01/25 04:32:09;;;;;;;8.73;6.50;;;;;;;0.35;97.61;94385.22;5039775;28;20487;-83
2021/01/25 04:34:35;;;;;;;8.63;5.63;;;;;;;0.35;97.87;94389.81;5038759;28;20484;-84
2021/01/25 04:37:02;;;;;;;10.97;5.83;;;;;;;0.46;97.70;94386.88;5050797;28;20451;-79
2021/01/25 04:39:28;;;;;;;7.63;5.80;;;;;;;0.58;97.23;94384.66;5041724;28;20443;-81
2021/01/25 04:41:54;;;;;;;9.53;6.03;;;;;;;0.53;96.81;94386.91;5039599;28;20554;-81
2021/01/25 04:44:23;;;;;;;9.43;5.93;;;;;;;0.42;97.48;94383.84;5039794;28;20820;-82
2021/01/25 04:46:50;;;;;;;8.93;5.70;;;;;;;0.50;97.40;94387.25;5038551;28;20544;-84
2021/01/25 04:49:18;;;;;;;8.70;6.20;;;;;;;0.57;97.50;94391.88;5035603;28;20458;-85
2021/01/25 04:51:46;;;;;;;10.70;5.90;;;;;;;0.50;97.56;94393.25;5035799;28;20525;-84
2021/01/25 04:54:14;;;;;;;11.83;7.40;;;;;;;0.52;97.45;94385.50;5033933;28;20571;-85
2021/01/25 04:56:41;;;;;;;12.60;7.13;;;;;;;0.59;97.28;94392.09;5035582;28;20443;-84
2021/01/25 04:59:08;;;;;;;14.80;8.27;;;;;;;0.55;97.46;94394.34;5036038;28;20539;-81
2021/01/25 05:01:35;;;;;;;20.07;8.83;;;;;;;0.61;97.22;94397.56;5038388;28;20874;-82
2021/01/25 05:04:02;;;;;;;12.80;7.63;;;;;;;0.58;97.37;94401.28;5038602;28;20443;-81
2021/01/25 05:06:29;;;;;;;10.17;6.60;;;;;;;0.50;97.65;94393.25;5039025;28;20530;-82
2021/01/25 05:08:55;;;;;;;10.17;6.43;;;;;;;0.52;97.86;94398.06;5036851;28;20428;-85
2021/01/25 05:11:22;;;;;;;11.70;7.33;;;;;;;0.53;97.94;94394.88;5035299;28;20882;-85
2021/01/25 05:13:48;;;;;;;9.47;6.47;;;;;;;0.53;97.99;94399.47;5034967;28;20486;-84
2021/01/25 05:16:16;;;;;;;10.87;6.67;;;;;;;0.53;98.06;94405.47;5035346;28;20924;-85
2021/01/25 05:18:43;;;;;;;13.33;6.87;;;;;;;0.57;97.77;94399.13;5034719;28;20442;-85
2021/01/25 05:21:11;;;;;;;10.00;7.33;;;;;;;0.60;98.20;94395.44;5036109;28;20455;-85
2021/01/25 05:23:38;;;;;;;6.60;5.50;;;;;;;0.66;98.43;94404.66;5035329;28;20442;-85
2021/01/25 05:26:06;;;;;;;14.13;6.40;;;;;;;0.50;98.30;94398.56;5035351;28;20480;-84
2021/01/25 05:28:39;;;;;;;9.13;6.30;;;;;;;0.46;99.03;94406.16;5035587;28;20443;-83
2021/01/25 05:31:17;;;;;;;7.10;5.53;;;;;;;0.39;98.93;94403.44;5034723;28;20520;-83
2021/01/25 05:33:44;;;;;;;12.63;6.57;;;;;;;0.39;98.82;94409.47;5035174;28;20467;-84
2021/01/25 05:36:11;;;;;;;9.80;6.57;;;;;;;0.42;99.49;94411.06;5035541;28;20955;-85
2021/01/25 05:38:38;;;;;;;7.47;5.63;;;;;;;0.56;99.15;94414.34;5035196;28;20509;-85
2021/01/25 05:41:05;;;;;;;10.20;6.90;;;;;;;0.61;98.97;94405.53;5034968;28;20467;-84
2021/01/25 05:43:33;;;;;;;12.17;7.37;;;;;;;0.61;98.43;94415.44;5035621;28;20493;-84
2021/01/25 05:46:06;;;;;;;8.00;6.57;;;;;;;0.60;98.76;94414.72;5034830;28;20439;-85
2021/01/25 05:48:33;;;;;;;8.23;6.03;;;;;;;0.66;98.62;94417.94;5034659;28;20432;-84
2021/01/25 05:51:12;;;;;;;11.80;7.30;;;;;;;0.76;97.91;94413.56;5034502;28;20462;-85
2021/01/25 05:53:39;;;;;;;9.00;7.30;;;;;;;0.77;97.70;94417.66;5034992;28;20898;-85
2021/01/25 05:56:09;;;;;;;11.43;8.10;;;;;;;0.76;97.63;94418.16;5034899;28;20447;-86
2021/01/25 05:58:35;;;;;;;9.60;7.70;;;;;;;0.81;97.86;94418.03;5035133;28;20505;-85
2021/01/25 06:01:02;;;;;;;8.33;7.43;;;;;;;0.86;96.81;94419.84;5035029;28;21056;-84
2021/01/25 06:03:34;;;;;;;11.00;7.07;;;;;;;0.96;96.86;94420.78;5034891;28;20439;-85
2021/01/25 06:06:01;;;;;;;12.83;7.07;;;;;;;0.88;96.42;94425.31;5034624;28;21041;-85
2021/01/25 06:08:37;;;;;;;9.53;7.03;;;;;;;0.79;96.84;94417.13;5034166;28;20487;-85
2021/01/25 06:11:07;;;;;;;9.83;7.33;;;;;;;0.80;96.52;94421.22;5034264;28;20474;-86
2021/01/25 06:13:41;;;;;;;9.93;7.50;;;;;;;0.79;96.76;94428.47;5035086;28;20558;-85
2021/01/25 06:16:11;;;;;;;9.23;6.73;;;;;;;0.73;96.86;94425.25;5035167;28;20418;-85
2021/01/25 06:18:37;;;;;;;12.90;7.20;;;;;;;0.68;96.96;94428.75;5034813;28;20431;-85
2021/01/25 06:21:08;;;;;;;11.77;7.50;;;;;;;0.74;96.65;94429.31;5034587;28;20471;-86
2021/01/25 06:23:36;;;;;;;11.63;9.00;;;;;;;0.64;97.02;94431.03;5034913;28;20503;-85
2021/01/25 06:26:03;;;;;;;10.13;8.20;;;;;;;0.58;97.03;94435.75;5034376;28;20446;-83
2021/01/25 06:28:32;;;;;;;12.57;8.57;;;;;;;0.55;96.94;94442.09;5036181;28;20431;-84
2021/01/25 06:30:58;;;;;;;11.67;9.00;;;;;;;0.46;97.63;94447.88;5035717;28;21021;-85
2021/01/25 06:33:25;;;;;;;18.87;8.60;;;;;;;0.43;97.54;94447.00;5036558;28;20922;-85
2021/01/25 06:35:52;;;;;;;13.87;10.63;;;;;;;0.35;97.61;94442.84;5036619;28;20770;-85
2021/01/25 06:38:20;;;;;;;14.53;10.70;;;;;;;0.39;97.62;94456.50;5035753;28;20950;-85
2021/01/25 06:40:49;;;;;;;13.43;9.80;;;;;;;0.32;97.79;94449.91;5035996;28;20452;-82
2021/01/25 06:43:17;;;;;;;16.03;10.23;;;;;;;0.27;98.01;94452.69;5039833;28;20534;-83
2021/01/25 06:45:44;;;;;;;18.13;10.33;;;;;;;0.25;98.38;94463.09;5037312;28;20783;-85
2021/01/25 06:48:16;;;;;;;18.33;10.50;;;;;;;0.25;98.52;94461.16;5036389;28;20446;-87
2021/01/25 06:50:45;;;;;;;17.83;10.63;;;;;;;0.22;98.56;94464.16;5035695;28;20467;-87
2021/01/25 06:53:13;;;;;;;14.10;9.70;;;;;;;0.25;99.02;94465.75;5035675;28;21006;-84
2021/01/25 06:55:42;;;;;;;18.10;12.10;;;;;;;0.27;98.97;94464.00;5036994;28;20450;-88
2021/01/25 06:58:11;;;;;;;16.13;11.33;;;;;;;0.28;99.25;94467.38;5035437;28;20455;-86
2021/01/25 07:00:39;;;;;;;18.80;10.23;;;;;;;0.32;98.85;94473.75;5035120;28;20569;-87
2021/01/25 07:03:06;;;;;;;16.33;9.93;;;;;;;0.40;99.05;94473.84;5036726;28;20450;-87
2021/01/25 07:05:43;;;;;;;15.97;10.30;;;;;;;0.38;98.83;94479.66;5056456;28;20407;-87
2021/01/25 07:08:17;;;;;;;21.83;10.63;;;;;;;0.29;99.07;94480.09;5056219;28;20494;-87
2021/01/25 07:11:06;;;;;;;17.83;11.10;;;;;;;0.33;99.32;94487.75;5056381;28;20542;-86
2021/01/25 07:13:34;;;;;;;18.27;9.50;;;;;;;0.32;99.48;94487.03;5054351;28;20479;-84
2021/01/25 07:16:01;;;;;;;18.20;9.80;;;;;;;0.80;99.44;94496.25;5057091;28;20443;-85
2021/01/25 07:18:30;;;;;;;20.77;9.27;;;;;;;1.16;97.34;94504.22;5059550;28;20443;-86
2021/01/25 07:21:00;;;;;;;19.30;10.67;;;;;;;1.07;96.51;94505.44;5048295;28;20562;-87
2021/01/25 07:23:28;;;;;;;14.73;9.43;;;;;;;1.30;95.25;94508.22;5023665;28;20515;-85
2021/01/25 07:25:56;;;;;;;13.50;7.97;;;;;;;1.52;94.30;94517.53;5021935;28;20456;-86
2021/01/25 07:28:23;;;;;;;16.40;8.67;;;;;;;1.62;92.81;94515.81;5041952;28;20447;-85
2021/01/25 07:30:51;;;;;;;17.50;9.20;;;;;;;1.64;92.58;94518.63;5041989;28;20463;-85
2021/01/25 07:33:18;;;;;;;15.00;7.97;;;;;;;1.74;91.98;94522.22;5039755;28;20558;-86
2021/01/25 07:35:45;;;;;;;9.83;7.20;;;;;;;1.79;91.65;94523.28;5039937;28;20454;-86
2021/01/25 07:38:12;;;;;;;12.37;8.50;;;;;;;1.65;92.17;94522.00;5041007;28;20475;-87
2021/01/25 07:40:39;;;;;;;12.63;8.10;;;;;;;1.80;91.40;94525.44;5039769;28;20517;-86
2021/01/25 07:43:06;;;;;;;14.73;8.73;;;;;;;1.79;91.66;94531.97;5040552;28;20427;-87
2021/01/25 07:45:35;;;;;;;18.60;9.93;;;;;;;1.96;90.91;94536.81;5042902;28;20471;-87
2021/01/25 07:48:02;;;;;;;26.70;10.77;;;;;;;1.89;91.14;94537.50;5043448;28;20439;-87
2021/01/25 07:50:28;;;;;;;13.10;6.80;;;;;;;1.93;91.48;94540.53;5039444;28;20894;-88
2021/01/25 07:52:59;;;;;;;16.63;8.90;;;;;;;2.02;90.66;94548.00;5038610;28;20899;-86
2021/01/25 07:55:26;;;;;;;14.27;7.90;;;;;;;1.79;91.59;94555.19;5038979;28;20834;-87
2021/01/25 07:57:55;;;;;;;13.93;7.10;;;;;;;1.71;92.77;94552.50;5038860;28;20432;-88
2021/01/25 08:00:23;;;;;;;17.70;7.70;;;;;;;1.56;93.19;94545.19;5039561;28;20458;-88
2021/01/25 08:02:55;;;;;;;9.87;7.50;;;;;;;1.42;94.43;94551.13;5039232;28;20958;-88
2021/01/25 08:05:24;;;;;;;18.57;8.30;;;;;;;1.56;94.02;94552.44;5039897;28;20772;-88
2021/01/25 08:07:52;;;;;;;15.30;7.40;;;;;;;1.46;94.34;94546.19;5039804;28;20447;-86
2021/01/25 08:10:19;;;;;;;13.43;8.20;;;;;;;1.55;94.23;94559.00;5039005;28;20455;-88
2021/01/25 08:12:47;;;;;;;14.03;7.80;;;;;;;1.52;94.67;94563.41;5038141;28;20633;-87
2021/01/25 08:15:20;;;;;;;15.20;9.37;;;;;;;1.45;94.91;94569.38;5038737;28;20908;-88
2021/01/25 08:17:55;;;;;;;17.80;9.50;;;;;;;1.44;95.37;94564.63;5039900;28;20408;-87
2021/01/25 08:20:24;;;;;;;13.47;7.33;;;;;;;1.34;95.35;94569.69;5042143;28;20426;-89
2021/01/25 08:22:56;;;;;;;12.23;8.10;;;;;;;1.30;96.07;94563.28;5040594;28;20434;-87
2021/01/25 08:25:25;;;;;;;19.27;10.93;;;;;;;1.23;96.45;94579.88;5040406;28;20767;-86
2021/01/25 08:28:01;;;;;;;38.90;13.37;;;;;;;1.12;97.21;94583.53;5041558;28;20489;-89
2021/01/25 08:30:40;;;;;;;24.03;13.50;;;;;;;1.20;97.11;94581.63;5044011;28;20393;-90
2021/01/25 08:33:08;;;;;;;36.13;16.60;;;;;;;1.18;96.98;94581.44;5043329;28;20463;-85
2021/01/25 08:35:38;;;;;;;27.13;13.23;;;;;;;1.18;97.21;94589.41;5043154;28;20443;-86
2021/01/25 08:38:17;;;;;;;16.07;10.20;;;;;;;1.23;96.68;94587.84;5044508;28;20451;-86
2021/01/25 08:40:46;;;;;;;19.50;10.90;;;;;;;1.43;96.72;94603.03;5046952;28;20471;-87
2021/01/25 08:43:24;;;;;;;20.73;9.90;;;;;;;1.51;97.07;94599.19;5049156;28;20514;-88
2021/01/25 08:45:53;;;;;;;18.57;9.47;;;;;;;1.71;96.39;94603.00;5047273;28;20491;-90
2021/01/25 08:48:33;;;;;;;10.77;6.87;;;;;;;1.76;95.84;94596.09;5047744;28;20431;-89
2021/01/25 08:51:15;;;;;;;13.10;8.70;;;;;;;1.79;95.64;94611.72;5053883;28;21041;-89
2021/01/25 08:53:45;;;;;;;11.43;7.30;;;;;;;1.87;95.11;94609.13;5047212;28;20526;-89
2021/01/25 08:56:14;;;;;;;9.43;6.40;;;;;;;2.11;94.36;94614.72;5045471;28;20431;-88
2021/01/25 08:58:40;;;;;;;12.30;6.33;;;;;;;1.99;94.57;94616.25;5045399;28;20440;-87
2021/01/25 09:01:17;;;;;;;8.00;6.03;;;;;;;1.94;94.82;94619.78;5041943;28;20470;-85
2021/01/25 09:03:44;;;;;;;11.03;6.30;;;;;;;2.05;94.90;94627.47;5041651;28;20431;-87
2021/01/25 09:06:12;;;;;;;14.13;6.20;;;;;;;2.23;95.00;94635.66;5040171;28;20490;-87
2021/01/25 09:08:39;;;;;;;7.27;5.87;;;;;;;2.28;94.23;94634.81;5041400;28;20447;-87
2021/01/25 09:11:07;;;;;;;13.07;6.10;;;;;;;2.40;94.07;94638.59;5038771;28;20486;-85
2021/01/25 09:13:34;;;;;;;7.30;6.10;;;;;;;2.54;93.14;94634.53;5041157;28;20490;-87
2021/01/25 09:16:00;;;;;;;12.97;7.50;;;;;;;2.70;92.62;94646.63;5038581;28;20434;-86
2021/01/25 09:18:27;;;;;;;11.77;7.57;;;;;;;2.64;92.10;94649.47;5041432;28;20474;-86
2021/01/25 09:20:54;;;;;;;18.50;9.00;;;;;;;2.61;92.63;94650.53;5039149;28;20549;-86
2021/01/25 09:23:20;;;;;;;9.30;6.67;;;;;;;2.69;92.45;94653.91;5041565;28;20448;-88
2021/01/25 09:25:47;;;;;;;15.13;6.37;;;;;;;2.66;92.29;94656.94;5041913;28;20438;-90
2021/01/25 09:28:14;;;;;;;11.30;7.07;;;;;;;2.65;92.08;94655.50;5043793;28;20452;-90
2021/01/25 09:30:41;;;;;;;13.03;6.10;;;;;;;2.65;93.01;94658.88;5040483;28;20453;-89
2021/01/25 09:33:07;;;;;;;17.60;7.33;;;;;;;2.59;92.81;94669.00;5040130;28;20578;-87
2021/01/25 09:35:35;;;;;;;9.27;6.40;;;;;;;2.54;92.97;94669.84;5044521;28;20473;-87
2021/01/25 09:38:02;;;;;;;13.13;7.90;;;;;;;2.50;93.64;94674.81;5040797;28;20454;-87
2021/01/25 09:40:31;;;;;;;9.60;6.53;;;;;;;2.49;93.63;94670.72;5040262;28;20584;-88
2021/01/25 09:42:58;;;;;;;14.20;6.53;;;;;;;2.55;93.72;94687.25;5041817;28;20507;-86
2021/01/25 09:45:25;;;;;;;9.83;6.90;;;;;;;2.64;93.26;94686.75;5040241;28;20408;-87
2021/01/25 09:47:52;;;;;;;13.40;7.77;;;;;;;2.66;93.18;94689.56;5043061;28;20471;-87
2021/01/25 09:50:19;;;;;;;12.53;6.83;;;;;;;2.80;93.38;94695.47;5038815;28;20977;-88
2021/01/25 09:52:47;;;;;;;11.93;7.03;;;;;;;2.79;92.99;94702.03;5037870;28;20466;-88
2021/01/25 09:55:16;;;;;;;16.80;6.90;;;;;;;2.78;93.11;94703.28;5038460;28;20439;-88
2021/01/25 09:57:43;;;;;;;15.13;5.60;;;;;;;3.00;92.52;94710.63;5038935;28;20455;-88
2021/01/25 10:00:12;;;;;;;9.37;7.00;;;;;;;2.98;92.35;94715.75;5037128;28;20435;-87
2021/01/25 10:02:38;;;;;;;13.20;7.20;;;;;;;3.04;92.68;94705.66;5038262;28;20955;-86
2021/01/25 10:05:09;;;;;;;11.50;6.50;;;;;;;2.98;91.94;94717.72;5036775;28;20871;-86
2021/01/25 10:07:35;;;;;;;9.00;6.80;;;;;;;2.96;92.18;94720.19;5038922;28;20439;-87
2021/01/25 10:10:06;;;;;;;10.97;6.40;;;;;;;2.83;93.15;94715.00;5057761;28;20481;-87
2021/01/25 10:12:32;;;;;;;15.00;6.50;;;;;;;2.84;93.53;94724.44;5057775;28;20463;-88
2021/01/25 10:14:59;;;;;;;14.17;7.43;;;;;;;2.97;93.46;94724.28;5057814;28;20409;-85
2021/01/25 10:17:28;;;;;;;7.50;6.17;;;;;;;3.08;92.73;94729.28;5046312;28;20439;-88
2021/01/25 10:19:54;;;;;;;9.37;6.10;;;;;;;3.15;91.87;94731.97;5036189;28;20501;-87
2021/01/25 10:22:21;;;;;;;10.00;5.40;;;;;;;3.12;91.84;94741.03;5036978;28;20534;-86
2021/01/25 10:24:47;;;;;;;15.77;6.03;;;;;;;3.23;92.12;94748.66;5036287;28;20820;-87
2021/01/25 10:27:14;;;;;;;9.73;5.30;;;;;;;3.28;91.78;94744.44;5037414;28;20482;-89
2021/01/25 10:29:41;;;;;;;7.30;5.67;;;;;;;3.20;92.04;94749.72;5036996;28;20505;-87
2021/01/25 10:32:07;;;;;;;9.30;5.20;;;;;;;3.33;91.59;94754.19;5037089;28;20455;-89
2021/01/25 10:34:33;;;;;;;10.20;5.80;;;;;;;3.20;91.84;94755.06;5037262;28;20549;-89
2021/01/25 10:37:00;;;;;;;13.83;6.80;;;;;;;3.41;92.04;94749.59;5038576;28;20500;-89
2021/01/25 10:39:26;;;;;;;17.47;10.67;;;;;;;3.51;91.65;94755.13;5036756;28;20459;-85
2021/01/25 10:41:52;;;;;;;10.73;5.93;;;;;;;3.52;90.85;94756.53;5035823;28;20905;-85
2021/01/25 10:44:20;;;;;;;9.50;6.50;;;;;;;3.55;91.53;94768.78;5037169;28;20502;-86
2021/01/25 10:46:46;;;;;;;6.27;4.63;;;;;;;3.67;90.55;94767.19;5037422;28;20409;-85
2021/01/25 10:49:13;;;;;;;8.90;5.47;;;;;;;3.47;91.17;94770.75;5037232;28;20436;-85
2021/01/25 10:51:40;;;;;;;12.90;7.60;;;;;;;3.38;91.79;94772.00;5037063;28;20467;-86
2021/01/25 10:54:06;;;;;;;13.50;7.93;;;;;;;3.36;92.48;94773.75;5040887;28;20478;-86
2021/01/25 10:56:32;;;;;;;8.17;5.70;;;;;;;3.34;91.99;94776.94;5041977;28;20439;-85
2021/01/25 10:58:59;;;;;;;10.10;5.17;;;;;;;3.41;91.90;94775.53;5041538;28;20542;-86
2021/01/25 11:01:26;;;;;;;14.37;6.07;;;;;;;3.31;92.23;94783.34;5040147;28;20456;-85
2021/01/25 11:03:53;;;;;;;6.03;4.47;;;;;;;3.34;92.72;94784.94;5039879;28;20435;-85
2021/01/25 11:06:21;;;;;;;6.70;4.20;;;;;;;3.31;92.55;94785.28;5039792;28;20450;-85
2021/01/25 11:08:47;;;;;;;6.50;4.00;;;;;;;3.42;92.35;94792.94;5039636;28;20546;-84
2021/01/25 11:11:13;;;;;;;5.30;4.20;;;;;;;3.51;91.53;94793.13;5041392;28;20467;-87
2021/01/25 11:13:41;;;;;;;7.67;4.03;;;;;;;3.61;91.01;94788.72;5043625;28;20461;-86
2021/01/25 11:16:09;;;;;;;5.70;3.70;;;;;;;3.58;90.52;94797.06;5042106;28;20820;-86
2021/01/25 11:18:37;;;;;;;6.07;3.60;;;;;;;3.46;90.90;94801.31;5055033;28;20423;-86
2021/01/25 11:21:03;;;;;;;9.20;3.70;;;;;;;3.59;90.99;94801.88;5055830;28;20498;-89
2021/01/25 11:23:30;;;;;;;5.53;3.87;;;;;;;3.84;90.01;94801.34;5045415;28;20593;-89
2021/01/25 11:25:57;;;;;;;3.47;2.70;;;;;;;3.67;87.44;94793.88;5044560;28;20451;-89
2021/01/25 11:28:23;;;;;;;3.50;2.43;;;;;;;3.73;87.87;94807.72;5043023;28;20439;-90
2021/01/25 11:30:50;;;;;;;4.87;3.03;;;;;;;3.60;89.09;94805.25;5046288;28;20469;-89
2021/01/25 11:33:16;;;;;;;3.23;1.90;;;;;;;3.66;89.05;94809.19;5045944;28;20478;-88
2021/01/25 11:35:44;;;;;;;4.07;3.50;;;;;;;3.86;87.74;94810.25;5053668;28;20471;-88
2021/01/25 11:38:10;;;;;;;3.97;2.80;;;;;;;3.78;87.85;94812.91;5059822;28;20435;-89
2021/01/25 11:40:37;;;;;;;3.17;2.60;;;;;;;3.94;88.02;94810.97;5059995;28;20459;-86
2021/01/25 11:43:05;;;;;;;2.50;2.10;;;;;;;4.00;86.69;94819.50;5058346;28;20402;-90